createdAt,value
2022-07-31T00:00:41.519Z,100234.53
2022-07-31T00:01:28.037Z,100239.19
2022-07-31T00:02:15.401Z,100238.91
2022-07-31T00:03:01.486Z,100237.25
2022-07-31T00:03:47.096Z,100233.41
2022-07-31T00:04:35.304Z,100235.34
2022-07-31T00:05:22.081Z,100232.59
2022-07-31T00:06:17.095Z,100233.41
2022-07-31T00:07:04.998Z,100233.41
2022-07-31T00:07:53.174Z,100233.41
2022-07-31T00:08:40.858Z,100236.16
2022-07-31T00:09:49.254Z,100231.47
2022-07-31T00:10:24.806Z,100223.56
2022-07-31T00:11:08.628Z,100230.66
2022-07-31T00:11:54.222Z,100232.28
2022-07-31T00:12:37.314Z,100231.47
2022-07-31T00:13:57.120Z,100227.94
2022-07-31T00:14:24.091Z,100230.38
2022-07-31T00:15:08.625Z,100232.28
2022-07-31T00:15:51.547Z,100230.38
2022-07-31T00:16:39.075Z,100226.00
2022-07-31T00:17:24.244Z,100224.88
2022-07-31T00:18:09.332Z,100228.44
2022-07-31T00:18:57.083Z,100225.69
2022-07-31T00:19:42.502Z,100220.53
2022-07-31T00:20:28.448Z,100224.06
2022-07-31T00:21:11.307Z,100222.16
2022-07-31T00:22:00.413Z,100221.03
2022-07-31T00:22:44.851Z,100221.03
2022-07-31T00:23:28.896Z,100214.75
2022-07-31T00:24:12.500Z,100210.06
2022-07-31T00:24:56.575Z,100219.09
2022-07-31T00:25:43.618Z,100212.81
2022-07-31T00:26:26.302Z,100223.78
2022-07-31T00:27:12.239Z,100219.09
2022-07-31T00:28:00.327Z,100211.69
2022-07-31T00:28:46.784Z,100218.28
2022-07-31T00:29:33.942Z,100217.47
2022-07-31T00:30:19.044Z,100213.13
2022-07-31T00:31:02.831Z,100211.50
2022-07-31T00:31:44.268Z,100212.59
2022-07-31T00:32:29.296Z,100214.53
2022-07-31T00:33:12.219Z,100218.38
2022-07-31T00:33:57.031Z,100214.53
2022-07-31T00:34:42.979Z,100215.66
2022-07-31T00:35:26.367Z,100213.72
2022-07-31T00:36:10.858Z,100214.84
2022-07-31T00:36:53.903Z,100216.47
2022-07-31T00:37:39.306Z,100210.97
2022-07-31T00:38:26.788Z,100207.44
2022-07-31T00:39:10.405Z,100217.28
2022-07-31T00:39:54.767Z,100211.78
2022-07-31T00:40:41.050Z,100209.88
2022-07-31T00:41:26.454Z,100207.13
2022-07-31T00:42:17.594Z,100213.41
2022-07-31T00:43:03.624Z,100206.00
2022-07-31T00:43:48.968Z,100207.94
2022-07-31T00:44:33.618Z,100203.28
2022-07-31T00:45:17.608Z,100203.28
2022-07-31T00:46:04.345Z,100206.81
2022-07-31T00:46:46.722Z,100204.09
2022-07-31T00:47:31.313Z,100208.75
2022-07-31T00:48:15.324Z,100202.16
2022-07-31T00:48:58.310Z,100205.72
2022-07-31T00:49:42.406Z,100200.22
2022-07-31T00:50:27.315Z,100205.72
2022-07-31T00:51:11.261Z,100199.13
2022-07-31T00:51:57.335Z,100204.59
2022-07-31T00:52:43.006Z,100199.13
2022-07-31T00:53:30.684Z,100196.38
2022-07-31T00:54:23.034Z,100198.31
2022-07-31T00:55:06.293Z,100199.94
2022-07-31T00:55:51.387Z,100191.72
2022-07-31T00:56:36.481Z,100196.38
2022-07-31T00:57:21.981Z,100197.19
2022-07-31T00:58:06.325Z,100190.91
2022-07-31T00:58:50.668Z,100194.44
2022-07-31T00:59:36.937Z,100202.66
2022-07-31T01:00:26.280Z,100195.25
2022-07-31T01:01:09.973Z,100201.34
2022-07-31T01:01:54.307Z,100192.00
2022-07-31T01:02:35.232Z,100200.53
2022-07-31T01:03:21.606Z,100200.84
2022-07-31T01:04:06.593Z,100200.03
2022-07-31T01:04:58.874Z,100189.06
2022-07-31T01:05:42.671Z,100187.94
2022-07-31T01:06:27.255Z,100195.34
2022-07-31T01:07:12.402Z,100198.09
2022-07-31T01:07:54.491Z,100195.34
2022-07-31T01:08:40.511Z,100195.34
2022-07-31T01:09:23.581Z,100192.63
2022-07-31T01:10:08.515Z,100196.16
2022-07-31T01:10:56.368Z,100187.13
2022-07-31T01:11:39.482Z,100186.03
2022-07-31T01:12:28.628Z,100192.31
2022-07-31T01:13:13.209Z,100186.84
2022-07-31T01:13:57.562Z,100186.84
2022-07-31T01:14:42.110Z,100192.31
2022-07-31T01:15:30.023Z,100193.13
2022-07-31T01:16:16.112Z,100187.66
2022-07-31T01:17:03.659Z,100194.75
2022-07-31T01:17:48.517Z,100190.38
2022-07-31T01:18:33.171Z,100189.28
2022-07-31T01:19:20.830Z,100192.81
2022-07-31T01:20:06.585Z,100197.19
2022-07-31T01:20:50.553Z,100190.91
2022-07-31T01:21:35.315Z,100194.44
2022-07-31T01:22:32.989Z,100190.91
2022-07-31T01:23:18.757Z,100193.63
2022-07-31T01:24:00.300Z,100188.97
2022-07-31T01:24:44.802Z,100195.25
2022-07-31T01:26:12.473Z,100189.78
2022-07-31T01:26:59.856Z,100192.53
2022-07-31T01:27:49.258Z,100191.41
2022-07-31T01:28:33.427Z,100192.53
2022-07-31T01:29:21.895Z,100187.03
2022-07-31T01:30:06.251Z,100193.34
2022-07-31T01:31:17.090Z,100184.59
2022-07-31T01:32:06.395Z,100190.69
2022-07-31T01:32:48.010Z,100189.38
2022-07-31T01:33:30.836Z,100191.59
2022-07-31T01:34:19.496Z,100194.34
2022-07-31T01:35:03.950Z,100191.09
2022-07-31T01:35:47.780Z,100191.09
2022-07-31T01:36:37.874Z,100194.13
2022-07-31T01:37:23.303Z,100198.00
2022-07-31T01:38:14.148Z,100190.88
2022-07-31T01:39:56.787Z,100193.13
2022-07-31T01:40:53.430Z,100189.56
2022-07-31T01:41:42.283Z,100190.69
2022-07-31T01:42:25.502Z,100190.16
2022-07-31T01:43:08.298Z,100192.91
2022-07-31T01:43:59.957Z,100194.03
2022-07-31T01:44:53.011Z,100185.28
2022-07-31T01:45:37.993Z,100194.31
2022-07-31T01:46:22.326Z,100184.81
2022-07-31T01:47:12.520Z,100182.88
2022-07-31T01:47:58.887Z,100188.66
2022-07-31T01:48:47.159Z,100182.38
2022-07-31T01:49:30.694Z,100184.31
2022-07-31T01:51:05.752Z,100186.22
2022-07-31T01:52:04.467Z,100177.50
2022-07-31T01:52:46.494Z,100178.63
2022-07-31T01:53:37.131Z,100181.34
2022-07-31T01:54:22.004Z,100184.41
2022-07-31T01:56:04.334Z,100184.41
2022-07-31T01:56:53.929Z,100178.09
2022-07-31T01:57:41.246Z,100176.47
2022-07-31T01:58:28.190Z,100178.72
2022-07-31T01:59:22.703Z,100178.72
2022-07-31T02:00:05.669Z,100175.16
2022-07-31T02:01:05.726Z,100175.97
2022-07-31T02:02:01.292Z,100177.91
2022-07-31T02:02:51.223Z,100181.75
2022-07-31T02:03:43.389Z,100180.13
2022-07-31T02:04:31.318Z,100175.75
2022-07-31T02:05:18.990Z,100182.88
2022-07-31T02:06:07.835Z,100174.13
2022-07-31T02:07:03.838Z,100179.63
2022-07-31T02:07:56.166Z,100181.25
2022-07-31T02:08:44.339Z,100181.53
2022-07-31T02:09:38.195Z,100178.00
2022-07-31T02:10:41.161Z,100177.19
2022-07-31T02:11:31.905Z,100177.19
2022-07-31T02:12:33.088Z,100179.09
2022-07-31T02:13:18.772Z,100178.28
2022-07-31T02:14:07.404Z,100180.22
2022-07-31T02:14:58.543Z,100175.84
2022-07-31T02:15:41.326Z,100173.13
2022-07-31T02:16:30.021Z,100170.38
2022-07-31T02:17:22.582Z,100173.94
2022-07-31T02:18:12.907Z,100166.31
2022-07-31T02:19:00.042Z,100168.75
2022-07-31T02:20:00.118Z,100166.00
2022-07-31T02:20:51.418Z,100172.59
2022-07-31T02:21:34.190Z,100164.38
2022-07-31T02:22:25.844Z,100167.13
2022-07-31T02:23:15.997Z,100158.09
2022-07-31T02:24:02.761Z,100161.16
2022-07-31T02:24:48.047Z,100160.03
2022-07-31T02:25:42.709Z,100161.16
2022-07-31T02:26:41.545Z,100165.50
2022-07-31T02:27:55.479Z,100161.94
2022-07-31T02:28:39.680Z,100157.28
2022-07-31T02:29:41.815Z,100163.06
2022-07-31T02:30:38.608Z,100159.53
2022-07-31T02:32:43.493Z,100156.78
2022-07-31T02:33:38.403Z,100162.25
2022-07-31T02:34:47.937Z,100160.63
2022-07-31T02:36:59.092Z,100166.09
2022-07-31T02:37:54.559Z,100161.75
2022-07-31T02:38:50.008Z,100157.38
2022-07-31T02:41:03.104Z,100155.75
2022-07-31T02:42:19.555Z,100160.13
2022-07-31T02:44:16.319Z,100155.75
2022-07-31T02:45:34.615Z,100161.22
2022-07-31T02:47:54.261Z,100160.41
2022-07-31T02:49:05.629Z,100159.59
2022-07-31T02:51:06.912Z,100155.25
2022-07-31T02:52:19.399Z,100156.06
2022-07-31T02:54:35.262Z,100157.16
2022-07-31T02:55:50.544Z,100146.22
2022-07-31T02:57:01.935Z,100148.97
2022-07-31T02:58:16.415Z,100151.41
2022-07-31T02:59:27.971Z,100146.22
2022-07-31T03:00:23.374Z,100148.16
2022-07-31T03:03:45.757Z,100139.13
2022-07-31T03:04:45.889Z,100135.56
2022-07-31T03:05:37.346Z,100138.31
2022-07-31T03:07:40.163Z,100143.78
2022-07-31T03:08:39.473Z,100132.03
2022-07-31T03:09:36.317Z,100131.22
2022-07-31T03:10:29.712Z,100132.84
2022-07-31T03:11:26.021Z,100134.75
2022-07-31T03:12:23.563Z,100132.03
2022-07-31T03:13:39.351Z,100130.09
2022-07-31T03:14:39.729Z,100127.34
2022-07-31T03:15:50.162Z,100123.81
2022-07-31T03:16:35.363Z,100128.47
2022-07-31T03:17:19.577Z,100121.06
2022-07-31T03:18:08.457Z,100125.75
2022-07-31T03:18:55.567Z,100125.75
2022-07-31T03:19:53.920Z,100127.66
2022-07-31T03:22:24.495Z,100127.66
2022-07-31T03:23:08.603Z,100118.63
2022-07-31T03:23:52.463Z,100124.94
2022-07-31T03:24:35.363Z,100121.38
2022-07-31T03:25:23.005Z,100128.47
2022-07-31T03:26:17.741Z,100124.94
2022-07-31T03:26:59.752Z,100129.59
2022-07-31T03:27:55.909Z,100126.56
2022-07-31T03:28:37.937Z,100129.59
2022-07-31T03:29:39.249Z,100128.47
2022-07-31T03:30:26.616Z,100126.84
2022-07-31T03:31:14.168Z,100122.19
2022-07-31T03:31:58.523Z,100125.75
2022-07-31T03:32:42.259Z,100126.56
2022-07-31T03:33:28.446Z,100124.94
2022-07-31T03:34:10.648Z,100131.22
2022-07-31T03:34:54.043Z,100129.59
2022-07-31T03:35:39.201Z,100132.31
2022-07-31T03:36:27.759Z,100130.41
2022-07-31T03:37:14.498Z,100132.31
2022-07-31T03:38:38.585Z,100129.59
2022-07-31T03:39:07.527Z,100126.84
2022-07-31T03:39:52.709Z,100128.75
2022-07-31T03:40:40.360Z,100124.13
2022-07-31T03:41:25.823Z,100128.75
2022-07-31T03:42:18.853Z,100132.31
2022-07-31T03:42:59.977Z,100126.00
2022-07-31T03:43:51.113Z,100128.75
2022-07-31T03:44:34.830Z,100126.00
2022-07-31T03:45:23.791Z,100130.66
2022-07-31T03:46:08.566Z,100122.47
2022-07-31T03:47:02.028Z,100130.66
2022-07-31T03:47:46.504Z,100127.94
2022-07-31T03:48:32.736Z,100131.47
2022-07-31T03:49:22.426Z,100127.13
2022-07-31T03:51:00.237Z,100130.66
2022-07-31T03:51:52.290Z,100122.47
2022-07-31T03:52:35.389Z,100124.38
2022-07-31T03:53:27.047Z,100118.09
2022-07-31T03:54:10.967Z,100118.91
2022-07-31T03:54:58.085Z,100124.38
2022-07-31T03:55:45.289Z,100116.16
2022-07-31T03:56:35.767Z,100127.13
2022-07-31T03:57:22.541Z,100124.38
2022-07-31T03:58:12.600Z,100124.38
2022-07-31T03:58:56.909Z,100127.94
2022-07-31T03:59:48.214Z,100124.38
2022-07-31T04:00:30.767Z,100126.31
2022-07-31T04:01:23.275Z,100123.56
2022-07-31T04:02:13.809Z,100120.03
2022-07-31T04:03:04.662Z,100122.47
2022-07-31T04:03:49.435Z,100122.75
2022-07-31T04:04:40.252Z,100125.19
2022-07-31T04:05:25.723Z,100129.84
2022-07-31T04:06:20.034Z,100115.34
2022-07-31T04:07:02.992Z,100129.84
2022-07-31T04:07:53.938Z,100125.50
2022-07-31T04:08:37.708Z,100119.22
2022-07-31T04:09:28.425Z,100123.56
2022-07-31T04:10:14.657Z,100123.56
2022-07-31T04:11:04.699Z,100125.50
2022-07-31T04:11:52.662Z,100119.22
2022-07-31T04:12:44.936Z,100119.22
2022-07-31T04:13:29.254Z,100125.50
2022-07-31T04:14:22.270Z,100121.94
2022-07-31T04:15:06.865Z,100117.28
2022-07-31T04:15:55.095Z,100116.47
2022-07-31T04:16:37.809Z,100119.22
2022-07-31T04:17:22.676Z,100121.94
2022-07-31T04:18:12.946Z,100125.50
2022-07-31T04:18:57.593Z,100123.06
2022-07-31T04:19:47.756Z,100123.06
2022-07-31T04:20:32.965Z,100130.16
2022-07-31T04:21:27.794Z,100126.59
2022-07-31T04:22:12.701Z,100135.63
2022-07-31T04:23:07.476Z,100125.78
2022-07-31T04:23:55.347Z,100129.34
2022-07-31T04:24:46.854Z,100129.34
2022-07-31T04:25:48.279Z,100131.28
2022-07-31T04:27:45.669Z,100128.53
2022-07-31T04:29:50.922Z,100126.91
2022-07-31T04:30:50.294Z,100123.06
2022-07-31T04:32:50.926Z,100111.28
2022-07-31T04:33:46.597Z,100117.88
2022-07-31T04:34:39.011Z,100114.03
2022-07-31T04:35:32.138Z,100105.00
2022-07-31T04:36:30.589Z,100111.28
2022-07-31T04:37:23.637Z,100105.81
2022-07-31T04:38:11.870Z,100111.28
2022-07-31T04:39:04.137Z,100102.28
2022-07-31T04:40:01.655Z,100110.50
2022-07-31T04:40:51.518Z,100107.75
2022-07-31T04:41:38.828Z,100107.75
2022-07-31T04:42:24.999Z,100104.19
2022-07-31T04:43:17.485Z,100105.81
2022-07-31T04:44:03.387Z,100107.75
2022-07-31T04:44:55.200Z,100101.47
2022-07-31T04:45:40.886Z,100099.53
2022-07-31T04:46:32.611Z,100107.75
2022-07-31T04:47:16.543Z,100097.91
2022-07-31T04:48:07.597Z,100101.47
2022-07-31T04:48:54.591Z,100106.63
2022-07-31T04:49:43.656Z,100105.00
2022-07-31T04:50:31.822Z,100110.50
2022-07-31T04:51:20.311Z,100110.50
2022-07-31T04:52:06.437Z,100113.22
2022-07-31T04:52:47.680Z,100113.22
2022-07-31T04:53:36.140Z,100111.59
2022-07-31T04:54:29.224Z,100111.28
2022-07-31T04:55:15.869Z,100115.16
2022-07-31T04:56:07.451Z,100121.44
2022-07-31T04:56:55.453Z,100118.69
2022-07-31T04:57:46.333Z,100124.16
2022-07-31T04:58:31.324Z,100115.97
2022-07-31T04:59:20.494Z,100115.97
2022-07-31T05:00:07.842Z,100120.63
2022-07-31T05:00:58.179Z,100116.78
2022-07-31T05:01:44.932Z,100118.69
2022-07-31T05:02:34.157Z,100117.88
2022-07-31T05:03:16.134Z,100112.41
2022-07-31T05:04:06.710Z,100118.69
2022-07-31T05:04:56.303Z,100115.97
2022-07-31T05:05:39.884Z,100122.56
2022-07-31T05:06:23.174Z,100115.97
2022-07-31T05:07:12.180Z,100116.78
2022-07-31T05:08:02.345Z,100115.16
2022-07-31T05:08:49.807Z,100115.16
2022-07-31T05:09:41.533Z,100120.63
2022-07-31T05:10:34.025Z,100117.88
2022-07-31T05:11:17.466Z,100120.63
2022-07-31T05:12:46.855Z,100125.28
2022-07-31T05:13:35.945Z,100125.28
2022-07-31T05:14:30.144Z,100120.94
2022-07-31T05:15:23.077Z,100126.09
2022-07-31T05:16:09.208Z,100126.91
2022-07-31T05:17:00.297Z,100125.28
2022-07-31T05:17:54.500Z,100127.72
2022-07-31T05:18:40.869Z,100119.81
2022-07-31T05:19:27.299Z,100121.44
2022-07-31T05:20:16.127Z,100118.69
2022-07-31T05:21:04.129Z,100117.88
2022-07-31T05:21:53.709Z,100120.63
2022-07-31T05:22:37.085Z,100119.81
2022-07-31T05:23:24.653Z,100120.63
2022-07-31T05:24:08.659Z,100117.88
2022-07-31T05:25:00.519Z,100112.72
2022-07-31T05:25:48.961Z,100119.81
2022-07-31T05:26:38.713Z,100119.00
2022-07-31T05:27:22.938Z,100119.00
2022-07-31T05:28:14.149Z,100116.25
2022-07-31T05:29:01.542Z,100119.81
2022-07-31T05:29:52.955Z,100120.63
2022-07-31T05:30:40.410Z,100119.81
2022-07-31T05:31:29.103Z,100120.63
2022-07-31T05:32:18.434Z,100121.72
2022-07-31T05:33:18.641Z,100122.56
2022-07-31T05:34:08.856Z,100122.56
2022-07-31T05:35:07.077Z,100127.22
2022-07-31T05:36:00.844Z,100128.03
2022-07-31T05:36:55.741Z,100123.66
2022-07-31T05:37:50.624Z,100123.66
2022-07-31T05:38:49.852Z,100129.94
2022-07-31T05:39:54.573Z,100132.69
2022-07-31T05:41:00.841Z,100129.94
2022-07-31T05:41:57.441Z,100135.41
2022-07-31T05:42:49.277Z,100133.78
2022-07-31T05:43:41.986Z,100129.13
2022-07-31T05:45:47.621Z,100122.03
2022-07-31T05:46:47.209Z,100122.84
2022-07-31T05:47:40.269Z,100119.00
2022-07-31T05:48:48.624Z,100125.59
2022-07-31T05:52:48.451Z,100130.25
2022-07-31T05:53:34.879Z,100118.50
2022-07-31T05:54:17.687Z,100130.25
2022-07-31T05:55:08.662Z,100124.78
2022-07-31T05:56:02.815Z,100117.69
2022-07-31T05:56:46.962Z,100127.50
2022-07-31T05:57:33.262Z,100121.22
2022-07-31T05:58:18.163Z,100122.84
2022-07-31T05:59:08.148Z,100122.84
2022-07-31T05:59:56.731Z,100119.31
2022-07-31T06:00:43.074Z,100117.38
2022-07-31T06:01:32.089Z,100116.56
2022-07-31T06:02:19.283Z,100118.19
2022-07-31T06:03:18.509Z,100115.44
2022-07-31T06:04:08.391Z,100117.38
2022-07-31T06:04:58.878Z,100122.03
2022-07-31T06:05:47.616Z,100117.38
2022-07-31T06:06:39.337Z,100122.84
2022-07-31T06:07:25.669Z,100126.41
2022-07-31T06:08:18.976Z,100117.38
2022-07-31T06:09:12.646Z,100120.13
2022-07-31T06:10:01.703Z,100122.56
2022-07-31T06:10:54.189Z,100116.56
2022-07-31T06:11:40.684Z,100116.56
2022-07-31T06:12:31.531Z,100112.72
2022-07-31T06:13:16.611Z,100120.94
2022-07-31T06:14:08.260Z,100119.31
2022-07-31T06:14:56.118Z,100118.19
2022-07-31T06:15:49.181Z,100117.38
2022-07-31T06:16:37.518Z,100115.75
2022-07-31T06:17:24.285Z,100112.72
2022-07-31T06:18:23.191Z,100120.13
2022-07-31T06:19:24.370Z,100113.81
2022-07-31T06:20:08.889Z,100111.09
2022-07-31T06:20:57.574Z,100116.56
2022-07-31T06:21:46.346Z,100117.38
2022-07-31T06:22:33.034Z,100122.03
2022-07-31T06:23:22.768Z,100115.75
2022-07-31T06:24:16.184Z,100118.50
2022-07-31T06:24:59.761Z,100116.56
2022-07-31T06:25:51.973Z,100113.81
2022-07-31T06:26:39.466Z,100111.09
2022-07-31T06:27:33.788Z,100117.38
2022-07-31T06:28:20.287Z,100114.63
2022-07-31T06:29:12.734Z,100111.91
2022-07-31T06:30:02.792Z,100113.81
2022-07-31T06:30:47.707Z,100111.91
2022-07-31T06:31:40.362Z,100111.09
2022-07-31T06:32:26.325Z,100110.28
2022-07-31T06:33:37.484Z,100107.25
2022-07-31T06:34:24.864Z,100106.44
2022-07-31T06:35:20.291Z,100107.25
2022-07-31T06:36:11.405Z,100102.88
2022-07-31T06:36:59.160Z,100111.09
2022-07-31T06:37:48.979Z,100100.16
2022-07-31T06:38:40.712Z,100108.34
2022-07-31T06:39:55.739Z,100109.97
2022-07-31T06:40:34.151Z,100109.16
2022-07-31T06:41:24.275Z,100113.81
2022-07-31T06:42:49.157Z,100104.81
2022-07-31T06:43:41.752Z,100105.63
2022-07-31T06:44:29.039Z,100111.91
2022-07-31T06:45:29.859Z,100107.25
2022-07-31T06:46:18.271Z,100102.88
2022-07-31T06:47:02.495Z,100104.81
2022-07-31T06:47:47.502Z,100107.25
2022-07-31T06:48:33.399Z,100095.78
2022-07-31T06:49:26.198Z,100100.16
2022-07-31T06:50:13.336Z,100096.59
2022-07-31T06:51:29.788Z,100097.41
2022-07-31T06:52:08.398Z,100106.44
2022-07-31T06:53:14.074Z,100095.47
2022-07-31T06:54:06.732Z,100102.88
2022-07-31T06:55:01.634Z,100100.16
2022-07-31T06:56:00.316Z,100100.16
2022-07-31T06:57:05.470Z,100103.69
2022-07-31T07:00:19.982Z,100102.88
2022-07-31T07:01:12.053Z,100095.78
2022-07-31T07:02:47.178Z,100093.84
2022-07-31T07:04:02.415Z,100091.13
2022-07-31T07:05:06.662Z,100087.56
2022-07-31T07:05:56.515Z,100097.72
2022-07-31T07:06:54.498Z,100102.06
2022-07-31T07:07:49.605Z,100098.53
2022-07-31T07:08:47.196Z,100082.91
2022-07-31T07:09:43.114Z,100093.03
2022-07-31T07:10:37.064Z,100084.84
2022-07-31T07:11:30.974Z,100087.56
2022-07-31T07:12:38.091Z,100088.69
2022-07-31T07:14:54.727Z,100085.94
2022-07-31T07:17:00.052Z,100089.50
2022-07-31T07:18:02.267Z,100091.41
2022-07-31T07:20:03.617Z,100089.50
2022-07-31T07:21:03.095Z,100083.22
2022-07-31T07:21:55.356Z,100098.53
2022-07-31T07:22:49.374Z,100091.41
2022-07-31T07:23:56.287Z,100093.03
2022-07-31T07:24:49.921Z,100085.94
2022-07-31T07:25:59.383Z,100088.69
2022-07-31T07:27:01.003Z,100091.41
2022-07-31T07:28:51.411Z,100093.03
2022-07-31T07:30:45.178Z,100094.16
2022-07-31T07:31:41.246Z,100087.56
2022-07-31T07:32:41.677Z,100088.69
2022-07-31T07:33:41.083Z,100085.94
2022-07-31T07:34:21.769Z,100084.03
2022-07-31T07:35:07.268Z,100090.59
2022-07-31T07:35:51.452Z,100088.69
2022-07-31T07:36:35.769Z,100086.75
2022-07-31T07:37:20.898Z,100089.50
2022-07-31T07:38:04.411Z,100085.94
2022-07-31T07:38:50.723Z,100089.50
2022-07-31T07:39:44.857Z,100081.28
2022-07-31T07:40:29.136Z,100081.28
2022-07-31T07:41:11.767Z,100088.69
2022-07-31T07:41:55.813Z,100078.56
2022-07-31T07:42:43.527Z,100082.09
2022-07-31T07:43:35.725Z,100082.09
2022-07-31T07:44:30.043Z,100081.28
2022-07-31T07:45:17.883Z,100080.97
2022-07-31T07:46:14.236Z,100080.16
2022-07-31T07:47:08.536Z,100086.75
2022-07-31T07:48:06.868Z,100079.34
2022-07-31T07:48:53.242Z,100079.34
2022-07-31T07:49:40.919Z,100071.16
2022-07-31T07:50:30.036Z,100075.50
2022-07-31T07:51:19.557Z,100074.69
2022-07-31T07:52:09.376Z,100079.34
2022-07-31T07:52:56.824Z,100077.44
2022-07-31T07:53:46.105Z,100075.50
2022-07-31T07:54:36.607Z,100073.59
2022-07-31T07:55:24.295Z,100063.75
2022-07-31T07:56:07.848Z,100067.31
2022-07-31T07:56:58.129Z,100068.41
2022-07-31T07:57:42.760Z,100066.50
2022-07-31T07:58:29.980Z,100077.44
2022-07-31T07:59:20.149Z,100058.28
2022-07-31T08:00:11.039Z,100067.31
2022-07-31T08:00:56.812Z,100065.69
2022-07-31T08:01:50.289Z,100055.53
2022-07-31T08:02:34.173Z,100061.00
2022-07-31T08:03:49.839Z,100061.00
2022-07-31T08:04:25.030Z,100055.53
2022-07-31T08:05:13.994Z,100059.09
2022-07-31T08:06:08.673Z,100056.34
2022-07-31T08:07:54.589Z,100054.44
2022-07-31T08:08:39.166Z,100049.25
2022-07-31T08:09:23.347Z,100059.09
2022-07-31T08:10:08.158Z,100051.69
2022-07-31T08:11:01.772Z,100050.06
2022-07-31T08:11:55.178Z,100050.88
2022-07-31T08:12:39.904Z,100052.00
2022-07-31T08:13:31.532Z,100048.44
2022-07-31T08:14:15.162Z,100050.06
2022-07-31T08:15:10.127Z,100050.88
2022-07-31T08:15:54.567Z,100044.59
2022-07-31T08:16:45.741Z,100051.19
2022-07-31T08:17:33.354Z,100054.72
2022-07-31T08:18:22.810Z,100043.78
2022-07-31T08:19:07.629Z,100046.53
2022-07-31T08:19:56.306Z,100050.06
2022-07-31T08:20:40.468Z,100053.91
2022-07-31T08:21:33.578Z,100048.13
2022-07-31T08:22:17.627Z,100044.59
2022-07-31T08:23:08.800Z,100043.78
2022-07-31T08:23:51.656Z,100047.31
2022-07-31T08:25:41.086Z,100041.84
2022-07-31T08:26:28.372Z,100041.84
2022-07-31T08:27:12.292Z,100039.94
2022-07-31T08:28:01.894Z,100039.94
2022-07-31T08:28:50.076Z,100045.41
2022-07-31T08:29:34.680Z,100045.41
2022-07-31T08:30:20.939Z,100045.41
2022-07-31T08:31:12.351Z,100048.94
2022-07-31T08:32:04.288Z,100041.03
2022-07-31T08:32:55.977Z,100039.13
2022-07-31T08:34:13.157Z,100044.59
2022-07-31T08:36:18.232Z,100045.41
2022-07-31T08:37:50.987Z,100041.03
2022-07-31T08:39:48.357Z,100043.78
2022-07-31T08:40:52.774Z,100054.72
2022-07-31T08:41:55.131Z,100050.38
2022-07-31T08:42:46.692Z,100049.25
2022-07-31T08:44:01.575Z,100044.91
2022-07-31T08:44:34.365Z,100040.22
2022-07-31T08:46:42.236Z,100042.16
2022-07-31T08:47:33.645Z,100047.63
2022-07-31T08:48:31.084Z,100052.28
2022-07-31T08:50:49.797Z,100051.19
2022-07-31T08:52:40.186Z,100048.44
2022-07-31T08:53:25.439Z,100048.44
2022-07-31T08:54:18.398Z,100053.09
2022-07-31T08:55:05.003Z,100053.91
2022-07-31T08:55:57.875Z,100057.47
2022-07-31T08:56:41.059Z,100054.72
2022-07-31T08:57:28.455Z,100062.94
2022-07-31T08:58:37.229Z,100058.28
2022-07-31T08:59:19.162Z,100054.72
2022-07-31T09:00:06.557Z,100060.19
2022-07-31T09:00:56.770Z,100054.72
2022-07-31T09:01:48.552Z,100051.19
2022-07-31T09:02:40.442Z,100067.31
2022-07-31T09:03:39.934Z,100058.28
2022-07-31T09:04:27.608Z,100066.50
2022-07-31T09:05:15.750Z,100065.69
2022-07-31T09:06:09.029Z,100058.28
2022-07-31T09:07:10.899Z,100062.94
2022-07-31T09:09:01.675Z,100071.97
2022-07-31T09:10:03.843Z,100066.50
2022-07-31T09:10:50.375Z,100072.78
2022-07-31T09:11:40.911Z,100061.81
2022-07-31T09:12:53.285Z,100072.78
2022-07-31T09:13:45.724Z,100070.03
2022-07-31T09:14:47.507Z,100069.72
2022-07-31T09:15:34.068Z,100070.03
2022-07-31T09:16:24.196Z,100072.78
2022-07-31T09:17:17.731Z,100068.91
2022-07-31T09:18:07.824Z,100068.13
2022-07-31T09:18:56.851Z,100059.09
2022-07-31T09:19:54.133Z,100059.09
2022-07-31T09:20:44.031Z,100061.81
2022-07-31T09:21:35.741Z,100067.31
2022-07-31T09:22:21.459Z,100057.97
2022-07-31T09:23:06.936Z,100065.38
2022-07-31T09:24:05.056Z,100065.38
2022-07-31T09:24:52.073Z,100070.03
2022-07-31T09:25:49.721Z,100069.22
2022-07-31T09:26:43.055Z,100065.38
2022-07-31T09:27:28.054Z,100070.03
2022-07-31T09:28:23.388Z,100061.81
2022-07-31T09:29:08.668Z,100065.38
2022-07-31T09:29:55.859Z,100061.81
2022-07-31T09:30:56.011Z,100062.63
2022-07-31T09:31:45.618Z,100066.19
2022-07-31T09:32:36.299Z,100063.44
2022-07-31T09:33:48.879Z,100062.63
2022-07-31T09:35:27.183Z,100059.91
2022-07-31T09:37:24.616Z,100065.38
2022-07-31T09:38:37.549Z,100059.91
2022-07-31T09:39:29.949Z,100066.19
2022-07-31T09:40:21.039Z,100066.50
2022-07-31T09:41:16.574Z,100074.41
2022-07-31T09:42:21.576Z,100068.13
2022-07-31T09:43:13.379Z,100067.31
2022-07-31T09:44:00.581Z,100067.31
2022-07-31T09:44:54.554Z,100062.63
2022-07-31T09:45:37.253Z,100069.22
2022-07-31T09:46:31.246Z,100066.19
2022-07-31T09:47:24.574Z,100069.72
2022-07-31T09:48:26.886Z,100062.63
2022-07-31T09:49:14.214Z,100063.44
2022-07-31T09:50:57.856Z,100062.63
2022-07-31T09:51:48.538Z,100057.16
2022-07-31T09:52:48.428Z,100054.44
2022-07-31T09:53:43.007Z,100058.78
2022-07-31T09:54:31.564Z,100058.78
2022-07-31T09:55:24.114Z,100057.16
2022-07-31T09:56:28.834Z,100063.44
2022-07-31T09:57:36.787Z,100055.25
2022-07-31T09:58:21.922Z,100066.19
2022-07-31T09:59:13.243Z,100057.16
2022-07-31T10:00:21.848Z,100061.53
2022-07-31T10:01:08.115Z,100057.97
2022-07-31T10:02:24.152Z,100057.16
2022-07-31T10:03:09.847Z,100060.72
2022-07-31T10:04:06.990Z,100057.16
2022-07-31T10:04:53.061Z,100063.44
2022-07-31T10:05:39.385Z,100059.91
2022-07-31T10:07:32.081Z,100060.72
2022-07-31T10:08:19.899Z,100065.38
2022-07-31T10:09:10.800Z,100062.63
2022-07-31T10:10:18.752Z,100063.44
2022-07-31T10:11:16.515Z,100067.00
2022-07-31T10:12:11.500Z,100060.72
2022-07-31T10:13:00.706Z,100056.06
2022-07-31T10:13:53.355Z,100057.97
2022-07-31T10:14:44.249Z,100065.38
2022-07-31T10:15:35.837Z,100066.19
2022-07-31T10:16:28.253Z,100063.44
2022-07-31T10:17:35.951Z,100061.81
2022-07-31T10:18:35.537Z,100063.44
2022-07-31T10:19:21.946Z,100063.75
2022-07-31T10:21:16.967Z,100057.16
2022-07-31T10:22:21.190Z,100065.06
2022-07-31T10:23:15.113Z,100060.72
2022-07-31T10:24:13.260Z,100059.91
2022-07-31T10:25:06.954Z,100066.19
2022-07-31T10:25:59.861Z,100059.09
2022-07-31T10:27:00.376Z,100065.38
2022-07-31T10:27:50.937Z,100059.91
2022-07-31T10:28:52.462Z,100057.97